Fallon, Texas
Current Conditions -  °F | °C
As of 1:55 AM on Friday 31 Oct 2014 (Local Time) from KLXY Reporting Station
Scattered Clouds Scattered Clouds  
Wind Chill: 61°   Ceiling: Unl
Heat Index: 61°   Visibility: 10mi
Dew Point: 53°   Wind: 7mph
Humidity: 73%   Direction: 350°N
Pressure: 30.14"   Gusts: NA
Location:  31.6887°N, 96.511°W
Report Text: KLXY 310655Z AUTO 35006KT 10SM SCT100 16/11 A3014 RMK AO2 T01620114
Loading
Personal Weather Stations






























Interactive Weather Map
Tropical Storm Tracking
New forecast layout! Learn more

10-Day Weather Forecast

Advertisements
Track Severe Weather on mobile